Time;durP1;ratioP1;P1;durP2;ratioP2;P2;SDS_P1;SDS_P2;PMS_P1;PMS_P2;Temp;Humidity;BMP_temperature;BMP_pressure;BME280_temperature;BME280_humidity;BME280_pressure;Samples;Min_cycle;Max_cycle;Signal;HPM_P1;HPM_P2
2023/01/26 00:00:06;;;;;;;;;;;6.00;99.90;;;;;;5090062;28;20023;-77
2023/01/26 00:02:32;;;;;;;;;;;6.00;99.90;;;;;;5090044;28;20233;-77
2023/01/26 00:04:57;;;;;;;;;;;6.00;99.90;;;;;;5091848;28;19909;-77
2023/01/26 00:07:23;;;;;;;;;;;6.00;99.90;;;;;;5091317;28;19927;-77
2023/01/26 00:09:49;;;;;;;;;;;6.00;99.90;;;;;;5092017;28;19920;-77
2023/01/26 00:12:14;;;;;;;;;;;6.00;99.90;;;;;;5091040;28;19930;-78
2023/01/26 00:14:49;;;;;;;;;;;6.00;99.90;;;;;;5091763;28;19947;-77
2023/01/26 00:17:24;;;;;;;;;;;6.00;99.90;;;;;;5090658;28;20234;-77
2023/01/26 00:19:54;;;;;;;;;;;6.00;99.90;;;;;;5092086;28;19924;-77
2023/01/26 00:22:20;;;;;;;;;;;6.00;99.90;;;;;;5091428;28;19912;-77
2023/01/26 00:24:45;;;;;;;;;;;6.00;99.90;;;;;;5092242;28;19920;-77
2023/01/26 00:27:11;;;;;;;;;;;6.00;99.90;;;;;;5090142;28;19930;-78
2023/01/26 00:29:36;;;;;;;;;;;6.00;99.90;;;;;;5092046;28;19916;-78
2023/01/26 00:32:02;;;;;;;;;;;6.00;99.90;;;;;;5092011;28;19915;-83
2023/01/26 00:34:28;;;;;;;;;;;6.00;99.90;;;;;;5090301;28;19908;-77
2023/01/26 00:36:53;;;;;;;;;;;6.00;99.90;;;;;;5090434;28;19999;-77
2023/01/26 00:39:19;;;;;;;;;;;5.90;99.90;;;;;;5091295;28;20362;-78
2023/01/26 00:44:28;;;;;;;;;;;5.80;99.90;;;;;;5091347;28;19918;-77
2023/01/26 00:46:54;;;;;;;;;;;5.90;99.90;;;;;;5091816;28;19908;-78
2023/01/26 00:49:19;;;;;;;;;;;5.80;99.90;;;;;;5091132;28;19923;-78
2023/01/26 00:51:45;;;;;;;;;;;5.80;99.90;;;;;;5090354;28;19934;-79
2023/01/26 00:54:11;;;;;;;;;;;5.80;99.90;;;;;;5091249;28;19912;-79
2023/01/26 00:56:36;;;;;;;;;;;5.80;99.90;;;;;;5091831;28;20463;-78
2023/01/26 00:59:02;;;;;;;;;;;5.80;99.90;;;;;;5091924;28;19920;-78
2023/01/26 01:01:28;;;;;;;;;;;5.80;99.90;;;;;;5090968;28;19939;-79
2023/01/26 01:03:54;;;;;;;;;;;5.80;99.90;;;;;;5091232;28;19951;-79
2023/01/26 01:06:19;;;;;;;;;;;5.80;99.90;;;;;;5090877;28;19916;-79
2023/01/26 01:08:45;;;;;;;;;;;5.80;99.90;;;;;;5091152;28;19924;-79
2023/01/26 01:11:11;;;;;;;;;;;5.80;99.90;;;;;;5091087;28;20396;-80
2023/01/26 01:13:38;;;;;;;;;;;5.70;99.90;;;;;;5091487;28;19908;-79
2023/01/26 01:16:04;;;;;;;;;;;5.70;99.90;;;;;;5091202;28;19924;-78
2023/01/26 01:18:30;;;;;;;;;;;5.70;99.90;;;;;;5091520;28;19912;-79
2023/01/26 01:20:56;;;;;;;;;;;5.80;99.90;;;;;;5091340;28;20365;-79
2023/01/26 01:23:21;;;;;;;;;;;5.80;99.90;;;;;;5090702;28;20250;-79
2023/01/26 01:25:55;;;;;;;;;;;5.80;99.90;;;;;;5091528;28;19966;-79
2023/01/26 01:28:20;;;;;;;;;;;5.90;99.90;;;;;;5090805;28;19988;-78
2023/01/26 01:30:46;;;;;;;;;;;5.80;99.90;;;;;;5091163;28;20292;-78
2023/01/26 01:33:11;;;;;;;;;;;5.80;99.90;;;;;;5090636;28;19942;-78
2023/01/26 01:35:37;;;;;;;;;;;5.90;99.90;;;;;;5091060;28;19908;-78
2023/01/26 01:38:03;;;;;;;;;;;5.90;99.90;;;;;;5091181;28;19908;-78
2023/01/26 01:40:28;;;;;;;;;;;5.90;99.90;;;;;;5090350;28;20227;-78
2023/01/26 01:42:54;;;;;;;;;;;5.90;99.90;;;;;;5091204;28;19908;-78
2023/01/26 01:45:25;;;;;;;;;;;5.90;99.90;;;;;;5090198;28;19935;-78
2023/01/26 01:48:01;;;;;;;;;;;5.90;99.90;;;;;;5091026;28;19908;-79
2023/01/26 01:50:26;;;;;;;;;;;5.90;99.90;;;;;;5094531;28;20032;-79
2023/01/26 01:52:54;;;;;;;;;;;5.90;99.90;;;;;;5095375;28;20028;-78
2023/01/26 01:55:19;;;;;;;;;;;5.90;99.90;;;;;;5094914;28;19935;-79
2023/01/26 01:57:50;;;;;;;;;;;5.90;99.90;;;;;;5094880;28;20365;-78
2023/01/26 02:00:20;;;;;;;;;;;5.80;99.90;;;;;;5094793;28;20361;-79
2023/01/26 02:03:09;;;;;;;;;;;5.90;99.90;;;;;;5095143;28;19920;-81
2023/01/26 02:05:37;;;;;;;;;;;5.90;99.90;;;;;;5094225;28;20257;-79
2023/01/26 02:08:03;;;;;;;;;;;5.80;99.90;;;;;;5095078;28;20384;-79
2023/01/26 02:10:29;;;;;;;;;;;5.80;99.90;;;;;;5094175;28;20051;-79
2023/01/26 02:12:55;;;;;;;;;;;5.90;99.90;;;;;;5094821;28;19913;-79
2023/01/26 02:15:21;;;;;;;;;;;5.90;99.90;;;;;;5094430;28;19908;-79
2023/01/26 02:17:47;;;;;;;;;;;5.90;99.90;;;;;;5093241;28;19909;-79
2023/01/26 02:20:12;;;;;;;;;;;5.90;99.90;;;;;;5094456;28;19908;-79
2023/01/26 02:22:44;;;;;;;;;;;5.90;99.90;;;;;;5094782;28;19908;-78
2023/01/26 02:25:18;;;;;;;;;;;6.00;99.90;;;;;;5095006;28;19959;-84
2023/01/26 02:27:44;;;;;;;;;;;5.90;99.90;;;;;;5095385;28;19908;-79
2023/01/26 02:30:11;;;;;;;;;;;6.00;99.90;;;;;;5095389;28;20385;-86
2023/01/26 02:32:36;;;;;;;;;;;6.00;99.90;;;;;;5095995;28;19912;-79
2023/01/26 02:35:02;;;;;;;;;;;6.00;99.90;;;;;;5095307;28;20330;-78
2023/01/26 02:37:27;;;;;;;;;;;6.00;99.90;;;;;;5095242;28;19916;-79
2023/01/26 02:40:02;;;;;;;;;;;6.00;99.90;;;;;;5095373;28;19985;-77
2023/01/26 02:42:43;;;;;;;;;;;6.00;99.90;;;;;;5094312;28;20365;-77
2023/01/26 02:45:11;;;;;;;;;;;6.10;99.90;;;;;;5095123;28;19999;-77
2023/01/26 02:47:36;;;;;;;;;;;6.10;99.90;;;;;;5094103;28;20340;-77
2023/01/26 02:50:02;;;;;;;;;;;6.10;99.90;;;;;;5094760;28;19912;-78
2023/01/26 02:52:30;;;;;;;;;;;6.10;99.90;;;;;;5093932;28;19913;-78
2023/01/26 02:57:41;;;;;;;;;;;6.10;99.90;;;;;;5094662;28;20328;-78
2023/01/26 03:00:12;;;;;;;;;;;6.00;99.90;;;;;;5094339;28;19908;-78
2023/01/26 03:02:38;;;;;;;;;;;6.00;99.90;;;;;;5092668;28;19908;-78
2023/01/26 03:05:04;;;;;;;;;;;6.00;99.90;;;;;;5092904;28;19908;-78
2023/01/26 03:07:30;;;;;;;;;;;5.90;99.90;;;;;;5093114;28;19931;-78
2023/01/26 03:09:57;;;;;;;;;;;5.90;99.90;;;;;;5093732;28;20308;-78
2023/01/26 03:12:23;;;;;;;;;;;5.90;99.90;;;;;;5093394;28;20005;-78
2023/01/26 03:15:33;;;;;;;;;;;5.90;99.90;;;;;;5094261;28;20349;-76
2023/01/26 03:17:34;;;;;;;;;;;5.90;99.90;;;;;;5092617;28;20460;-78
2023/01/26 03:28:12;;;;;;;;;;;5.90;99.90;;;;;;5093670;28;19981;-78
2023/01/26 03:30:38;;;;;;;;;;;5.90;99.90;;;;;;5093227;28;19960;-78
2023/01/26 03:33:04;;;;;;;;;;;5.90;99.90;;;;;;5093673;28;19913;-79
2023/01/26 03:35:31;;;;;;;;;;;5.90;99.90;;;;;;5092904;28;20341;-79
2023/01/26 03:37:56;;;;;;;;;;;5.90;99.90;;;;;;5092941;28;19919;-78
2023/01/26 03:56:48;;;;;;;;;;;6.00;99.90;;;;;;5092894;28;19915;-78
2023/01/26 03:59:15;;;;;;;;;;;6.00;99.90;;;;;;5092948;28;20285;-78
2023/01/26 04:09:57;;;;;;;;;;;6.00;99.90;;;;;;5092435;28;19919;-78
2023/01/26 04:12:22;;;;;;;;;;;6.00;99.90;;;;;;5091297;28;19912;-78
2023/01/26 04:23:00;;;;;;;;;;;6.00;99.90;;;;;;5092198;28;20241;-78
2023/01/26 04:25:26;;;;;;;;;;;6.00;99.90;;;;;;5091653;28;19908;-78
2023/01/26 04:27:52;;;;;;;;;;;6.00;99.90;;;;;;5092197;28;20357;-78
2023/01/26 04:30:18;;;;;;;;;;;6.00;99.90;;;;;;5092031;28;19937;-84
2023/01/26 04:32:45;;;;;;;;;;;6.00;99.90;;;;;;5091923;28;19931;-77
2023/01/26 04:35:10;;;;;;;;;;;6.00;99.90;;;;;;5091978;28;19919;-79
2023/01/26 04:37:36;;;;;;;;;;;6.00;99.90;;;;;;5091419;28;19908;-77
2023/01/26 04:40:03;;;;;;;;;;;6.00;99.90;;;;;;5090753;28;19938;-78
2023/01/26 04:42:28;;;;;;;;;;;6.00;99.90;;;;;;5091540;28;19999;-78
2023/01/26 04:44:54;;;;;;;;;;;6.00;99.90;;;;;;5091573;28;20341;-77
2023/01/26 04:47:20;;;;;;;;;;;6.00;99.90;;;;;;5092064;28;19966;-85
2023/01/26 04:49:45;;;;;;;;;;;5.90;99.90;;;;;;5091326;28;19912;-78
2023/01/26 04:52:11;;;;;;;;;;;5.90;99.90;;;;;;5091933;28;19934;-77
2023/01/26 04:54:37;;;;;;;;;;;5.90;99.90;;;;;;5091296;28;20332;-77
2023/01/26 04:57:03;;;;;;;;;;;5.80;99.90;;;;;;5092113;28;20035;-77
2023/01/26 04:59:28;;;;;;;;;;;5.80;99.90;;;;;;5089776;28;19951;-78
2023/01/26 05:01:54;;;;;;;;;;;5.70;99.90;;;;;;5091697;28;19924;-77
2023/01/26 05:04:20;;;;;;;;;;;5.60;99.90;;;;;;5091423;28;19970;-84
2023/01/26 05:06:46;;;;;;;;;;;5.50;99.90;;;;;;5091063;28;19908;-78
2023/01/26 05:09:11;;;;;;;;;;;5.50;99.90;;;;;;5091529;28;19916;-79
2023/01/26 05:11:37;;;;;;;;;;;5.30;99.90;;;;;;5091180;28;19912;-79
2023/01/26 05:14:02;;;;;;;;;;;5.20;99.90;;;;;;5091319;28;19940;-77
2023/01/26 05:16:28;;;;;;;;;;;5.20;99.90;;;;;;5089297;28;19915;-78
2023/01/26 05:18:53;;;;;;;;;;;5.10;99.90;;;;;;5091135;28;20400;-77
2023/01/26 05:21:19;;;;;;;;;;;5.10;99.90;;;;;;5090019;28;20276;-78
2023/01/26 05:23:45;;;;;;;;;;;5.00;99.90;;;;;;5088766;28;19963;-78
2023/01/26 05:26:10;;;;;;;;;;;5.00;99.90;;;;;;5091091;28;19912;-78
2023/01/26 05:28:36;;;;;;;;;;;4.90;99.90;;;;;;5090691;28;19919;-78
2023/01/26 05:31:02;;;;;;;;;;;4.90;99.90;;;;;;5089624;28;19917;-78
2023/01/26 05:33:27;;;;;;;;;;;4.80;99.90;;;;;;5090504;28;19914;-79
2023/01/26 05:35:53;;;;;;;;;;;4.80;99.90;;;;;;5090531;28;19908;-78
2023/01/26 05:38:19;;;;;;;;;;;4.80;99.90;;;;;;5089476;28;20337;-80
2023/01/26 05:40:44;;;;;;;;;;;4.70;99.90;;;;;;5089083;28;19908;-79
2023/01/26 05:43:11;;;;;;;;;;;4.70;99.90;;;;;;5091086;28;19908;-78
2023/01/26 05:45:37;;;;;;;;;;;4.70;99.90;;;;;;5090036;28;20388;-77
2023/01/26 05:48:03;;;;;;;;;;;4.60;99.90;;;;;;5090840;28;19912;-78
2023/01/26 05:50:29;;;;;;;;;;;4.60;99.90;;;;;;5090433;28;20398;-79
2023/01/26 05:52:55;;;;;;;;;;;4.60;99.90;;;;;;5089199;28;19935;-79
2023/01/26 05:55:21;;;;;;;;;;;4.50;99.90;;;;;;5090897;28;20003;-80
2023/01/26 05:57:46;;;;;;;;;;;4.50;99.90;;;;;;5090146;28;19969;-78
2023/01/26 06:00:12;;;;;;;;;;;4.50;99.90;;;;;;5090611;28;19915;-78
2023/01/26 06:02:38;;;;;;;;;;;4.40;99.90;;;;;;5089891;28;20061;-78
2023/01/26 06:05:04;;;;;;;;;;;4.50;99.90;;;;;;5090649;28;19947;-77
2023/01/26 06:07:29;;;;;;;;;;;4.50;99.90;;;;;;5090073;28;20026;-77
2023/01/26 06:09:55;;;;;;;;;;;4.50;99.90;;;;;;5090425;28;19923;-78
2023/01/26 06:12:20;;;;;;;;;;;4.50;99.90;;;;;;5090663;28;19912;-77
2023/01/26 06:14:46;;;;;;;;;;;4.50;99.90;;;;;;5090068;28;19904;-79
2023/01/26 06:17:16;;;;;;;;;;;4.50;99.90;;;;;;5090605;28;20007;-78
2023/01/26 06:19:41;;;;;;;;;;;4.50;99.90;;;;;;5089688;28;20010;-79
2023/01/26 06:22:07;;;;;;;;;;;4.60;99.90;;;;;;5090645;28;20333;-79
2023/01/26 06:24:33;;;;;;;;;;;4.60;99.90;;;;;;5089699;28;20298;-79
2023/01/26 06:26:59;;;;;;;;;;;4.60;99.90;;;;;;5090664;28;20004;-79
2023/01/26 06:29:25;;;;;;;;;;;4.60;99.90;;;;;;5090914;28;19919;-78
2023/01/26 06:31:50;;;;;;;;;;;4.60;99.90;;;;;;5090095;28;19994;-79
2023/01/26 06:34:16;;;;;;;;;;;4.70;99.90;;;;;;5091164;28;19908;-78
2023/01/26 06:36:41;;;;;;;;;;;4.70;99.90;;;;;;5094374;28;20349;-78
2023/01/26 06:39:09;;;;;;;;;;;4.80;99.90;;;;;;5094423;28;20245;-79
2023/01/26 06:41:34;;;;;;;;;;;4.80;99.90;;;;;;5094314;28;19927;-78
2023/01/26 06:44:00;;;;;;;;;;;4.80;99.90;;;;;;5095863;28;19908;-78
2023/01/26 06:46:26;;;;;;;;;;;4.90;99.90;;;;;;5094396;28;19934;-78
2023/01/26 06:48:51;;;;;;;;;;;4.80;99.90;;;;;;5093570;28;19908;-77
2023/01/26 06:51:17;;;;;;;;;;;4.80;99.90;;;;;;5094539;28;19912;-78
2023/01/26 06:53:46;;;;;;;;;;;4.80;99.90;;;;;;5093636;28;19911;-78
2023/01/26 06:56:11;;;;;;;;;;;4.90;99.90;;;;;;5094815;28;19908;-78
2023/01/26 06:58:37;;;;;;;;;;;4.90;99.90;;;;;;5094336;28;19915;-79
2023/01/26 07:01:03;;;;;;;;;;;4.90;99.90;;;;;;5093761;28;20375;-78
2023/01/26 07:03:28;;;;;;;;;;;5.00;99.90;;;;;;5093769;28;19914;-85
2023/01/26 07:05:54;;;;;;;;;;;5.00;99.90;;;;;;5093437;28;20007;-79
2023/01/26 07:08:19;;;;;;;;;;;5.00;99.90;;;;;;5094206;28;19941;-79
2023/01/26 07:10:45;;;;;;;;;;;5.10;99.90;;;;;;5093422;28;20422;-79
2023/01/26 07:13:10;;;;;;;;;;;5.10;99.90;;;;;;5094343;28;19969;-77
2023/01/26 07:15:36;;;;;;;;;;;5.10;99.90;;;;;;5092025;28;19908;-78
2023/01/26 07:18:01;;;;;;;;;;;5.10;99.90;;;;;;5093303;28;20336;-78
2023/01/26 07:20:27;;;;;;;;;;;5.20;99.90;;;;;;5093590;28;19995;-80
2023/01/26 07:22:53;;;;;;;;;;;5.20;99.90;;;;;;5091355;28;19908;-78
2023/01/26 07:25:19;;;;;;;;;;;5.20;99.90;;;;;;5093343;28;20011;-78
2023/01/26 07:27:44;;;;;;;;;;;5.30;99.90;;;;;;5093149;28;20214;-78
2023/01/26 07:30:13;;;;;;;;;;;5.30;99.90;;;;;;5092860;28;19966;-78
2023/01/26 07:32:38;;;;;;;;;;;5.30;99.90;;;;;;5093153;28;19928;-78
2023/01/26 07:35:05;;;;;;;;;;;5.30;99.90;;;;;;5093262;28;19969;-78
2023/01/26 07:37:30;;;;;;;;;;;5.30;99.90;;;;;;5093018;28;19912;-85
2023/01/26 07:39:56;;;;;;;;;;;5.20;99.90;;;;;;5091101;28;19914;-79
2023/01/26 07:42:21;;;;;;;;;;;5.30;99.90;;;;;;5092339;28;20434;-78
2023/01/26 07:44:47;;;;;;;;;;;5.20;99.90;;;;;;5092623;28;19952;-78
2023/01/26 07:47:13;;;;;;;;;;;5.30;99.90;;;;;;5091848;28;19908;-78
2023/01/26 07:49:39;;;;;;;;;;;5.30;99.90;;;;;;5092498;28;19912;-78
2023/01/26 07:52:05;;;;;;;;;;;5.20;99.90;;;;;;5092792;28;19973;-78
2023/01/26 07:54:31;;;;;;;;;;;5.30;99.90;;;;;;5092787;28;19908;-78
2023/01/26 07:56:57;;;;;;;;;;;5.30;99.90;;;;;;5092255;28;19915;-77
2023/01/26 07:59:23;;;;;;;;;;;5.30;99.90;;;;;;5092641;28;19919;-76
2023/01/26 08:01:49;;;;;;;;;;;5.30;99.90;;;;;;5090834;28;19923;-77
2023/01/26 08:04:15;;;;;;;;;;;5.30;99.90;;;;;;5093200;28;19915;-77
2023/01/26 08:06:40;;;;;;;;;;;5.20;99.90;;;;;;5092002;28;19908;-78
2023/01/26 08:09:06;;;;;;;;;;;5.20;99.90;;;;;;5092638;28;19908;-78
2023/01/26 08:11:31;;;;;;;;;;;5.30;99.90;;;;;;5092823;28;19912;-77
2023/01/26 08:13:57;;;;;;;;;;;5.30;99.90;;;;;;5090985;28;19914;-77
2023/01/26 08:16:22;;;;;;;;;;;5.30;99.90;;;;;;5093066;28;19953;-77
2023/01/26 08:18:48;;;;;;;;;;;5.30;99.90;;;;;;5092458;28;19950;-78
2023/01/26 08:21:14;;;;;;;;;;;5.30;99.90;;;;;;5092703;28;20066;-76
2023/01/26 08:23:40;;;;;;;;;;;5.30;99.90;;;;;;5091950;28;20278;-77
2023/01/26 08:26:07;;;;;;;;;;;5.30;99.90;;;;;;5091749;28;20011;-78
2023/01/26 08:28:33;;;;;;;;;;;5.30;99.90;;;;;;5091902;28;19915;-77
2023/01/26 08:31:02;;;;;;;;;;;5.30;99.90;;;;;;5089957;28;20314;-78
2023/01/26 08:33:29;;;;;;;;;;;5.30;99.90;;;;;;5092065;28;19912;-77
2023/01/26 08:35:59;;;;;;;;;;;5.30;99.90;;;;;;5091261;28;19987;-77
2023/01/26 08:38:24;;;;;;;;;;;5.30;99.90;;;;;;5091835;28;19908;-77
2023/01/26 08:40:50;;;;;;;;;;;5.30;99.90;;;;;;5091166;28;20081;-77
2023/01/26 08:43:16;;;;;;;;;;;5.30;99.90;;;;;;5091431;28;19908;-77
2023/01/26 08:45:42;;;;;;;;;;;5.30;99.90;;;;;;5090958;28;19999;-78
2023/01/26 08:48:07;;;;;;;;;;;5.30;99.90;;;;;;5091999;28;19916;-78
2023/01/26 08:50:33;;;;;;;;;;;5.30;99.90;;;;;;5091496;28;20336;-78
2023/01/26 08:52:58;;;;;;;;;;;5.30;99.90;;;;;;5089740;28;20010;-77
2023/01/26 08:55:24;;;;;;;;;;;5.30;99.90;;;;;;5091552;28;19909;-78
2023/01/26 08:57:53;;;;;;;;;;;5.30;99.90;;;;;;5090514;28;19918;-78
2023/01/26 09:00:20;;;;;;;;;;;5.30;99.90;;;;;;5091316;28;20333;-78
2023/01/26 09:02:45;;;;;;;;;;;5.20;99.90;;;;;;5091196;28;19909;-78
2023/01/26 09:05:11;;;;;;;;;;;5.20;99.90;;;;;;5091819;28;19915;-78
2023/01/26 09:07:36;;;;;;;;;;;5.20;99.90;;;;;;5091110;28;19962;-85
2023/01/26 09:10:02;;;;;;;;;;;5.30;99.90;;;;;;5091101;28;20215;-78
2023/01/26 09:12:28;;;;;;;;;;;5.30;99.90;;;;;;5091390;28;19912;-78
2023/01/26 09:14:53;;;;;;;;;;;5.30;99.90;;;;;;5090982;28;20300;-78
2023/01/26 09:17:19;;;;;;;;;;;5.30;99.90;;;;;;5091143;28;19908;-77
2023/01/26 09:19:44;;;;;;;;;;;5.30;99.90;;;;;;5090711;28;19999;-78
2023/01/26 09:22:10;;;;;;;;;;;5.40;99.90;;;;;;5089746;28;20007;-76
2023/01/26 09:24:35;;;;;;;;;;;5.40;99.90;;;;;;5090969;28;19954;-78
2023/01/26 09:27:01;;;;;;;;;;;5.50;99.90;;;;;;5089210;28;19908;-78
2023/01/26 09:29:26;;;;;;;;;;;5.50;99.90;;;;;;5090541;28;19916;-78
2023/01/26 09:31:52;;;;;;;;;;;5.60;99.90;;;;;;5090831;28;19948;-78
2023/01/26 09:34:18;;;;;;;;;;;5.60;99.90;;;;;;5091163;28;20264;-78
2023/01/26 09:36:43;;;;;;;;;;;5.70;99.90;;;;;;5090386;28;19970;-78
2023/01/26 09:39:09;;;;;;;;;;;5.70;99.90;;;;;;5091243;28;20020;-77
2023/01/26 09:41:42;;;;;;;;;;;5.80;99.90;;;;;;5091019;28;19939;-77
2023/01/26 09:44:23;;;;;;;;;;;5.80;99.90;;;;;;5091094;28;19908;-77
2023/01/26 09:46:55;;;;;;;;;;;5.90;99.90;;;;;;5090379;28;19915;-77
2023/01/26 09:49:43;;;;;;;;;;;5.90;99.90;;;;;;5090888;28;19923;-77
2023/01/26 09:52:12;;;;;;;;;;;6.00;99.90;;;;;;5085241;28;19912;-77
2023/01/26 09:54:40;;;;;;;;;;;6.00;99.90;;;;;;5090826;28;19908;-77
2023/01/26 09:57:13;;;;;;;;;;;6.00;99.90;;;;;;5091107;28;19915;-77
2023/01/26 09:59:50;;;;;;;;;;;6.10;99.90;;;;;;5091164;28;19908;-76
2023/01/26 10:02:19;;;;;;;;;;;6.10;99.90;;;;;;5090871;28;19915;-76
2023/01/26 10:04:46;;;;;;;;;;;6.10;99.90;;;;;;5090695;28;20426;-77
2023/01/26 10:07:12;;;;;;;;;;;6.10;99.90;;;;;;5090630;28;20369;-76
2023/01/26 10:09:40;;;;;;;;;;;6.20;99.90;;;;;;5091274;28;19912;-76
2023/01/26 10:12:20;;;;;;;;;;;6.20;99.90;;;;;;5094387;28;20353;-77
2023/01/26 10:14:50;;;;;;;;;;;6.30;99.90;;;;;;5094176;28;19909;-76
2023/01/26 10:17:25;;;;;;;;;;;6.30;99.90;;;;;;5094816;28;19908;-76
2023/01/26 10:19:56;;;;;;;;;;;6.40;99.90;;;;;;5094162;28;19934;-76
2023/01/26 10:22:35;;;;;;;;;;;6.30;99.90;;;;;;5094276;28;19908;-76
2023/01/26 10:25:10;;;;;;;;;;;6.40;99.90;;;;;;5094163;28;19919;-76
2023/01/26 10:27:35;;;;;;;;;;;6.40;99.90;;;;;;5093428;28;19937;-77
2023/01/26 10:30:01;;;;;;;;;;;6.40;99.90;;;;;;5094214;28;19939;-76
2023/01/26 10:32:26;;;;;;;;;;;6.40;99.90;;;;;;5095317;28;20344;-78
2023/01/26 10:34:52;;;;;;;;;;;6.50;99.90;;;;;;5094393;28;19919;-76
2023/01/26 10:37:22;;;;;;;;;;;6.40;99.90;;;;;;5094806;28;19908;-76
2023/01/26 10:39:55;;;;;;;;;;;6.40;99.90;;;;;;5094258;28;19953;-76
2023/01/26 10:42:21;;;;;;;;;;;6.50;99.90;;;;;;5094718;28;19954;-77
2023/01/26 10:44:49;;;;;;;;;;;6.50;99.90;;;;;;5093754;28;19908;-78
2023/01/26 10:47:16;;;;;;;;;;;6.50;99.90;;;;;;5092555;28;19998;-77
2023/01/26 10:49:41;;;;;;;;;;;6.60;99.90;;;;;;5094105;28;19912;-77
2023/01/26 10:52:14;;;;;;;;;;;6.70;99.90;;;;;;5093427;28;19912;-77
2023/01/26 10:54:42;;;;;;;;;;;6.70;99.90;;;;;;5076085;28;19909;-77
2023/01/26 10:57:20;;;;;;;;;;;6.80;99.90;;;;;;5093630;28;19928;-77
2023/01/26 10:59:51;;;;;;;;;;;6.90;99.90;;;;;;5093432;28;19915;-84
2023/01/26 11:02:16;;;;;;;;;;;7.00;99.90;;;;;;5093587;28;19908;-78
2023/01/26 11:05:00;;;;;;;;;;;7.10;99.90;;;;;;5093910;28;19912;-76
2023/01/26 11:07:27;;;;;;;;;;;7.10;99.90;;;;;;5092161;28;19924;-76
2023/01/26 11:09:52;;;;;;;;;;;7.30;99.90;;;;;;5093119;28;19919;-76
2023/01/26 11:12:19;;;;;;;;;;;7.30;99.90;;;;;;5093811;28;19913;-76
2023/01/26 11:15:02;;;;;;;;;;;7.30;99.90;;;;;;5093266;28;19961;-83
2023/01/26 11:17:37;;;;;;;;;;;7.40;99.90;;;;;;5093287;28;19908;-78
2023/01/26 11:20:17;;;;;;;;;;;7.40;99.90;;;;;;5092852;28;19915;-76
2023/01/26 11:22:54;;;;;;;;;;;7.40;99.90;;;;;;5091687;28;20354;-76
2023/01/26 11:25:22;;;;;;;;;;;7.50;99.90;;;;;;5093271;28;20007;-76
2023/01/26 11:28:04;;;;;;;;;;;7.50;99.90;;;;;;5091467;28;20349;-78
2023/01/26 11:30:48;;;;;;;;;;;7.60;99.90;;;;;;5093181;28;19912;-76
2023/01/26 11:33:13;;;;;;;;;;;7.50;99.90;;;;;;5093353;28;19966;-76
2023/01/26 11:35:56;;;;;;;;;;;7.50;99.90;;;;;;5091430;28;19947;-76
2023/01/26 11:38:39;;;;;;;;;;;7.60;99.90;;;;;;5091919;28;19908;-77
2023/01/26 11:41:07;;;;;;;;;;;7.60;99.90;;;;;;5092396;28;19915;-77
2023/01/26 11:43:32;;;;;;;;;;;7.60;99.90;;;;;;5093027;28;19962;-77
2023/01/26 11:46:04;;;;;;;;;;;7.60;99.90;;;;;;5092754;28;19939;-77
2023/01/26 11:48:32;;;;;;;;;;;7.60;99.90;;;;;;5092986;28;20029;-77
2023/01/26 11:51:13;;;;;;;;;;;7.60;99.90;;;;;;5090885;28;19951;-77
2023/01/26 11:53:57;;;;;;;;;;;7.70;99.90;;;;;;5092932;28;19966;-77
2023/01/26 11:56:49;;;;;;;;;;;7.70;99.90;;;;;;5093271;28;19962;-77
2023/01/26 11:59:24;;;;;;;;;;;7.70;99.90;;;;;;5090448;28;20265;-77
2023/01/26 12:02:01;;;;;;;;;;;7.70;99.90;;;;;;5092491;28;20298;-85
2023/01/26 12:04:27;;;;;;;;;;;7.70;99.90;;;;;;5092964;28;20094;-77
2023/01/26 12:07:11;;;;;;;;;;;7.70;99.90;;;;;;5091461;28;20361;-77
2023/01/26 12:09:41;;;;;;;;;;;7.70;99.90;;;;;;5092631;28;19958;-77
2023/01/26 12:12:23;;;;;;;;;;;7.70;99.90;;;;;;5071695;28;19943;-78
2023/01/26 12:14:51;;;;;;;;;;;7.70;99.90;;;;;;5072081;28;19908;-83
2023/01/26 12:17:17;;;;;;;;;;;7.70;99.90;;;;;;5072274;28;19913;-78
2023/01/26 12:20:03;;;;;;;;;;;7.70;99.90;;;;;;5072379;28;19962;-77
2023/01/26 12:22:29;;;;;;;;;;;7.70;99.90;;;;;;5072005;28;19913;-76
2023/01/26 12:25:02;;;;;;;;;;;7.70;99.90;;;;;;5071351;28;19914;-78
2023/01/26 12:27:34;;;;;;;;;;;7.70;99.90;;;;;;5072104;28;19912;-76
2023/01/26 12:30:18;;;;;;;;;;;7.60;99.90;;;;;;5071145;28;19912;-76
2023/01/26 12:32:43;;;;;;;;;;;7.60;99.90;;;;;;5071401;28;19912;-76
2023/01/26 12:35:10;;;;;;;;;;;7.60;99.90;;;;;;5070761;28;19943;-77
2023/01/26 12:37:48;;;;;;;;;;;7.50;99.90;;;;;;5071415;28;20410;-76
2023/01/26 12:40:31;;;;;;;;;;;7.60;99.90;;;;;;5070796;28;20056;-77
2023/01/26 12:43:20;;;;;;;;;;;7.60;99.90;;;;;;5071173;28;19915;-77
2023/01/26 12:45:47;;;;;;;;;;;7.70;99.90;;;;;;5071649;28;20247;-77
2023/01/26 12:48:14;;;;;;;;;;;7.80;99.90;;;;;;5071268;28;19909;-78
2023/01/26 12:50:52;;;;;;;;;;;7.90;99.90;;;;;;5072485;28;19923;-76
2023/01/26 12:53:31;;;;;;;;;;;8.00;99.90;;;;;;5070346;28;19916;-77
2023/01/26 12:56:08;;;;;;;;;;;8.10;99.90;;;;;;5071525;28;19909;-77
2023/01/26 12:58:36;;;;;;;;;;;8.10;99.90;;;;;;5071262;28;19984;-77
2023/01/26 13:01:04;;;;;;;;;;;8.20;99.90;;;;;;5071373;28;19912;-76
2023/01/26 13:03:37;;;;;;;;;;;8.20;99.90;;;;;;5070125;28;20337;-77
2023/01/26 13:06:08;;;;;;;;;;;8.30;99.90;;;;;;5102109;28;20247;-76
2023/01/26 13:08:34;;;;;;;;;;;8.40;99.90;;;;;;5069704;28;19932;-76
2023/01/26 13:11:05;;;;;;;;;;;8.40;99.90;;;;;;5069943;28;20288;-76
2023/01/26 13:13:54;;;;;;;;;;;8.50;99.90;;;;;;5071356;28;19908;-77
2023/01/26 13:16:19;;;;;;;;;;;8.50;99.90;;;;;;5067782;28;20056;-77
2023/01/26 13:18:52;;;;;;;;;;;8.50;99.90;;;;;;5071116;28;19978;-77
2023/01/26 13:21:36;;;;;;;;;;;8.50;99.90;;;;;;5070524;28;19912;-77
2023/01/26 13:24:01;;;;;;;;;;;8.60;99.90;;;;;;5070563;28;19912;-77
2023/01/26 13:26:30;;;;;;;;;;;8.60;99.90;;;;;;5070778;28;20334;-77
2023/01/26 13:29:15;;;;;;;;;;;8.60;99.90;;;;;;5070553;28;20380;-82
2023/01/26 13:31:41;;;;;;;;;;;8.60;99.90;;;;;;5077003;28;19917;-77
2023/01/26 13:34:07;;;;;;;;;;;8.60;99.90;;;;;;5090601;28;20034;-78
2023/01/26 13:36:34;;;;;;;;;;;8.60;99.90;;;;;;5091122;28;19908;-78
2023/01/26 13:39:04;;;;;;;;;;;8.60;99.90;;;;;;5090714;28;19961;-77
2023/01/26 13:41:29;;;;;;;;;;;8.50;99.90;;;;;;5091046;28;19919;-77
2023/01/26 13:44:16;;;;;;;;;;;8.50;99.90;;;;;;5089957;28;20310;-85
2023/01/26 13:46:44;;;;;;;;;;;8.40;99.90;;;;;;5090801;28;19978;-76
2023/01/26 13:49:26;;;;;;;;;;;8.50;99.90;;;;;;5090046;28;20280;-77
2023/01/26 13:51:52;;;;;;;;;;;8.40;99.90;;;;;;5090859;28;19912;-77
2023/01/26 13:54:18;;;;;;;;;;;8.40;99.90;;;;;;5090188;28;19919;-77
2023/01/26 13:56:58;;;;;;;;;;;8.40;99.90;;;;;;5090945;28;19976;-77
2023/01/26 13:59:24;;;;;;;;;;;8.40;99.90;;;;;;5090645;28;19974;-76
2023/01/26 14:01:51;;;;;;;;;;;8.40;99.90;;;;;;5089863;28;19912;-77
2023/01/26 14:04:16;;;;;;;;;;;8.40;99.90;;;;;;5090967;28;19904;-77
2023/01/26 14:06:45;;;;;;;;;;;8.40;99.90;;;;;;5090588;28;19913;-77
2023/01/26 14:09:12;;;;;;;;;;;8.30;99.90;;;;;;5090627;28;19916;-77
2023/01/26 14:11:38;;;;;;;;;;;8.30;99.90;;;;;;5091256;28;19912;-75
2023/01/26 14:14:04;;;;;;;;;;;8.30;99.90;;;;;;5090574;28;19915;-76
2023/01/26 14:16:31;;;;;;;;;;;8.30;99.90;;;;;;5090727;28;20011;-77
2023/01/26 14:19:12;;;;;;;;;;;8.30;99.90;;;;;;5090898;28;19908;-84
2023/01/26 14:22:06;;;;;;;;;;;8.30;99.90;;;;;;5090675;28;19973;-77
2023/01/26 14:24:33;;;;;;;;;;;8.30;99.90;;;;;;5088997;28;19991;-77
2023/01/26 14:26:59;;;;;;;;;;;8.30;99.90;;;;;;5090713;28;19982;-85
2023/01/26 14:29:26;;;;;;;;;;;8.30;99.90;;;;;;5091257;28;19919;-76
2023/01/26 14:31:57;;;;;;;;;;;8.40;99.90;;;;;;5090622;28;19909;-76
2023/01/26 14:34:25;;;;;;;;;;;8.40;99.90;;;;;;5091260;28;19908;-77
2023/01/26 14:37:07;;;;;;;;;;;8.50;99.90;;;;;;5091272;28;19942;-76
2023/01/26 14:39:33;;;;;;;;;;;8.60;99.90;;;;;;5091039;28;20003;-76
2023/01/26 14:41:59;;;;;;;;;;;8.60;99.90;;;;;;5090798;28;19980;-83
2023/01/26 14:44:24;;;;;;;;;;;8.70;99.90;;;;;;5089246;28;19909;-77
2023/01/26 14:46:50;;;;;;;;;;;8.70;99.90;;;;;;5090771;28;19919;-77
2023/01/26 14:49:19;;;;;;;;;;;8.80;99.90;;;;;;5090277;28;19908;-77
2023/01/26 14:51:46;;;;;;;;;;;8.90;99.90;;;;;;5090753;28;19908;-77
2023/01/26 14:54:23;;;;;;;;;;;8.90;99.90;;;;;;5090547;28;19916;-76
2023/01/26 14:56:49;;;;;;;;;;;8.90;99.90;;;;;;5093068;28;19908;-78
2023/01/26 14:59:21;;;;;;;;;;;8.90;99.90;;;;;;5093683;28;20003;-76
2023/01/26 15:01:46;;;;;;;;;;;8.80;99.90;;;;;;5094185;28;20332;-77
2023/01/26 15:04:23;;;;;;;;;;;8.70;99.90;;;;;;5093668;28;19987;-78
2023/01/26 15:06:49;;;;;;;;;;;8.60;99.90;;;;;;5092770;28;19908;-77
2023/01/26 15:09:24;;;;;;;;;;;8.60;99.90;;;;;;5093236;28;19908;-78
2023/01/26 15:14:44;;;;;;;;;;;8.60;99.90;;;;;;5093789;28;19915;-77
2023/01/26 15:17:28;;;;;;;;;;;8.60;99.90;;;;;;5093300;28;19915;-78
2023/01/26 15:19:53;;;;;;;;;;;8.60;99.90;;;;;;5092434;28;19977;-77
2023/01/26 15:22:21;;;;;;;;;;;8.60;99.90;;;;;;5091339;28;20423;-78
2023/01/26 15:24:57;;;;;;;;;;;8.60;99.90;;;;;;5093443;28;19908;-77
2023/01/26 15:27:23;;;;;;;;;;;8.60;99.90;;;;;;5092988;28;19911;-76